Time;durP1;ratioP1;P1;durP2;ratioP2;P2;SDS_P1;SDS_P2;PMS_P1;PMS_P2;Temp;Humidity;BMP_temperature;BMP_pressure;BME280_temperature;BME280_humidity;BME280_pressure;Samples;Min_cycle;Max_cycle;Signal;HPM_P1;HPM_P2
2023/04/25 00:01:35;;;;;;;2.60;2.33;;;8.70;83.00;;;8.22;73.09;97228.81;5050178;28;20460;-79
2023/04/25 00:04:03;;;;;;;4.50;2.63;;;8.70;83.10;;;8.30;73.40;97230.41;5044695;28;20537;-79
2023/04/25 00:06:35;;;;;;;4.57;2.90;;;8.70;83.00;;;8.30;72.98;97225.84;5049473;28;20969;-78
2023/04/25 00:09:03;;;;;;;3.63;3.03;;;8.70;82.90;;;8.36;72.70;97229.53;5049897;28;21234;-81
2023/04/25 00:11:31;;;;;;;4.10;2.90;;;8.70;82.80;;;8.39;73.25;97223.69;5050071;28;20456;-80
2023/04/25 00:14:01;;;;;;;4.00;2.90;;;8.70;82.70;;;8.09;72.28;97175.91;5061038;28;20513;-81
2023/04/25 00:16:33;;;;;;;3.67;2.80;;;8.80;82.40;;;8.44;72.46;97220.34;5039785;28;20493;-78
2023/04/25 00:19:01;;;;;;;3.03;2.70;;;8.80;82.30;;;8.35;72.17;97219.78;5071946;28;20952;-80
2023/04/25 00:21:28;;;;;;;4.00;3.00;;;8.80;81.90;;;8.35;72.38;97230.56;5071627;28;20511;-82
2023/04/25 00:23:56;;;;;;;2.50;2.30;;;8.80;81.90;;;8.43;71.51;97227.59;5052320;28;20463;-81
2023/04/25 00:26:23;;;;;;;3.57;2.43;;;8.80;81.90;;;8.36;71.92;97240.28;5049738;28;20980;-80
2023/04/25 00:28:51;;;;;;;4.30;3.27;;;8.80;81.70;;;8.51;71.63;97226.53;5051681;28;20449;-80
2023/04/25 00:31:19;;;;;;;2.70;2.20;;;8.90;81.60;;;8.53;71.71;97226.28;5046137;28;20964;-75
2023/04/25 00:33:47;;;;;;;2.40;2.03;;;8.90;81.60;;;8.48;71.50;97229.59;5045729;28;20460;-80
2023/04/25 00:36:14;;;;;;;2.73;2.53;;;8.90;81.70;;;8.20;72.43;97215.56;5051924;28;20479;-80
2023/04/25 00:38:42;;;;;;;3.13;2.83;;;8.80;81.60;;;8.44;71.97;97231.94;5052033;28;20480;-75
2023/04/25 00:41:11;;;;;;;5.00;2.73;;;8.90;81.60;;;8.47;71.79;97231.50;5052685;28;20444;-79
2023/04/25 00:43:39;;;;;;;3.10;2.60;;;8.90;81.80;;;8.42;72.14;97223.28;5049905;28;20479;-80
2023/04/25 00:46:06;;;;;;;2.53;2.10;;;8.90;81.90;;;8.32;71.51;97229.13;5054089;28;20477;-82
2023/04/25 00:48:34;;;;;;;2.73;2.37;;;8.80;81.30;;;8.26;71.79;97207.66;5067541;28;20491;-75
2023/04/25 00:51:03;;;;;;;4.07;2.83;;;8.80;81.50;;;8.41;71.37;97216.22;5069568;28;20453;-78
2023/04/25 00:53:32;;;;;;;3.07;2.40;;;8.90;81.40;;;8.56;71.54;97217.75;5064718;28;20449;-73
2023/04/25 00:56:00;;;;;;;3.43;2.70;;;8.90;81.50;;;8.45;72.25;97221.97;5049014;28;20553;-82
2023/04/25 00:58:27;;;;;;;3.37;2.70;;;8.90;81.70;;;8.48;71.46;97217.00;5052376;28;20449;-78
2023/04/25 01:00:55;;;;;;;3.03;2.13;;;8.90;81.50;;;8.48;72.22;97219.69;5051861;28;20867;-75
2023/04/25 01:03:25;;;;;;;3.97;2.87;;;8.90;82.00;;;8.50;71.76;97220.31;5061224;28;20479;-78
2023/04/25 01:05:55;;;;;;;3.87;2.30;;;8.90;81.70;;;8.48;71.58;97214.28;5054802;28;20556;-82
2023/04/25 01:08:25;;;;;;;2.93;2.67;;;8.90;81.50;;;8.38;72.34;97216.66;5051766;28;20462;-78
2023/04/25 01:10:53;;;;;;;3.03;2.43;;;8.90;81.70;;;8.34;72.21;97205.53;5060970;28;20451;-76
2023/04/25 01:13:20;;;;;;;3.27;2.47;;;8.80;81.80;;;8.37;72.47;97209.63;5065436;28;20781;-80
2023/04/25 01:15:48;;;;;;;4.40;2.30;;;8.80;81.80;;;8.28;72.46;97216.34;5079851;28;20462;-79
2023/04/25 01:18:16;;;;;;;2.73;1.73;;;8.80;81.90;;;8.29;72.42;97218.00;5048579;28;20476;-76
2023/04/25 01:20:44;;;;;;;2.43;2.13;;;8.80;82.00;;;8.30;72.27;97206.19;5068184;28;20453;-79
2023/04/25 01:23:14;;;;;;;1.97;1.77;;;8.70;81.90;;;8.36;71.76;97205.28;5072624;28;20453;-81
2023/04/25 01:25:41;;;;;;;3.27;2.00;;;8.70;81.70;;;8.23;72.17;97203.56;5065820;28;20471;-82
2023/04/25 01:28:09;;;;;;;1.80;1.57;;;8.70;81.80;;;8.29;72.25;97201.84;5061739;28;20962;-82
2023/04/25 01:30:37;;;;;;;2.43;1.90;;;8.70;81.70;;;8.27;72.81;97206.63;5052161;28;20488;-78
2023/04/25 01:33:05;;;;;;;3.90;2.47;;;8.70;81.90;;;8.20;72.62;97195.94;5052478;28;20462;-82
2023/04/25 01:35:33;;;;;;;3.73;2.43;;;8.70;82.10;;;8.19;72.84;97203.16;5045926;28;20455;-80
2023/04/25 01:38:00;;;;;;;2.87;1.67;;;8.60;82.20;;;8.22;73.32;97197.34;5036165;28;20464;-82
2023/04/25 01:40:29;;;;;;;6.40;2.67;;;8.60;82.60;;;8.27;73.39;97201.25;5058523;28;20470;-78
2023/04/25 01:42:56;;;;;;;2.20;1.87;;;8.60;82.60;;;8.25;73.24;97200.63;5054223;28;20453;-83
2023/04/25 01:45:23;;;;;;;2.07;1.80;;;8.60;82.60;;;8.19;73.76;97188.91;5043063;28;20458;-79
2023/04/25 01:47:51;;;;;;;2.63;2.13;;;8.60;83.50;;;8.32;72.86;97202.22;5053706;28;20475;-82
2023/04/25 01:50:20;;;;;;;2.73;2.20;;;8.60;82.80;;;8.06;73.15;97192.50;5051224;28;20452;-78
2023/04/25 01:52:47;;;;;;;2.07;1.80;;;8.60;82.80;;;8.21;73.04;97213.72;5053137;28;20443;-80
2023/04/25 01:55:14;;;;;;;3.30;2.47;;;8.60;82.80;;;8.10;73.85;97207.16;5048928;28;20490;-80
2023/04/25 01:57:43;;;;;;;2.47;2.07;;;8.50;83.10;;;8.01;73.21;97195.03;5051672;28;20468;-79
2023/04/25 02:00:12;;;;;;;1.93;1.80;;;8.60;83.10;;;8.08;73.88;97201.19;5046526;28;20478;-78
2023/04/25 02:02:40;;;;;;;3.17;2.30;;;8.60;83.40;;;8.06;73.93;97205.97;5049225;28;20461;-76
2023/04/25 02:05:08;;;;;;;2.83;2.47;;;8.60;83.50;;;8.28;73.40;97213.66;5047074;28;20449;-81
2023/04/25 02:07:35;;;;;;;7.70;2.90;;;8.60;83.50;;;8.26;73.51;97213.88;5056103;28;20492;-80
2023/04/25 02:10:03;;;;;;;2.93;2.23;;;8.60;83.20;;;8.23;73.48;97217.81;5052393;28;20929;-79
2023/04/25 02:12:31;;;;;;;2.63;2.23;;;8.60;82.70;;;8.21;73.63;97211.84;5054951;28;20472;-80
2023/04/25 02:15:00;;;;;;;2.70;2.20;;;8.70;82.90;;;7.77;73.95;97163.34;5046254;28;20466;-78
2023/04/25 02:17:27;;;;;;;2.50;2.23;;;8.60;82.60;;;8.01;73.81;97206.59;5052277;28;20778;-81
2023/04/25 02:19:55;;;;;;;2.60;2.13;;;8.60;82.80;;;8.07;74.12;97215.69;5046217;28;20452;-81
2023/04/25 02:22:22;;;;;;;3.83;2.80;;;8.60;83.10;;;8.01;74.41;97212.00;5073945;28;20457;-81
2023/04/25 02:24:49;;;;;;;6.20;2.10;;;8.60;83.00;;;8.11;73.74;97211.50;5051541;28;20515;-83
2023/04/25 02:27:17;;;;;;;2.60;2.40;;;8.60;83.30;;;8.05;74.24;97207.84;5050284;28;20468;-81
2023/04/25 02:29:44;;;;;;;2.60;2.37;;;8.50;83.20;;;7.20;74.06;97085.38;5048040;28;20537;-83
2023/04/25 02:32:12;;;;;;;2.43;2.23;;;8.60;83.50;;;7.98;74.10;97195.50;5050370;28;20458;-80
2023/04/25 02:34:40;;;;;;;2.90;2.13;;;8.50;83.30;;;8.03;73.61;97203.72;5047609;28;20461;-73
2023/04/25 02:37:07;;;;;;;3.67;2.67;;;8.50;83.20;;;7.93;74.70;97191.56;5067492;28;20762;-79
2023/04/25 02:39:34;;;;;;;3.40;2.30;;;8.40;83.50;;;7.93;74.29;97188.88;5044340;28;20454;-81
2023/04/25 02:42:02;;;;;;;4.37;2.90;;;8.30;83.50;;;7.97;74.93;97188.47;5062799;28;20457;-79
2023/04/25 02:44:29;;;;;;;3.10;2.80;;;8.40;84.20;;;7.78;74.56;97166.84;5043802;28;20460;-80
2023/04/25 02:46:57;;;;;;;5.63;3.40;;;8.40;84.10;;;7.73;75.76;97178.25;5067217;28;20498;-79
2023/04/25 02:49:25;;;;;;;3.80;2.60;;;8.30;84.60;;;7.82;75.81;97180.69;5041968;28;20579;-82
2023/04/25 02:51:52;;;;;;;4.90;3.00;;;8.30;85.30;;;7.70;76.51;97173.31;5048356;28;20502;-77
2023/04/25 02:54:20;;;;;;;4.90;3.13;;;8.30;85.30;;;7.54;76.67;97158.56;5054256;28;20457;-81
2023/04/25 02:56:47;;;;;;;4.00;3.07;;;8.20;85.80;;;7.67;76.93;97173.75;5052192;28;20503;-82
2023/04/25 02:59:14;;;;;;;5.67;4.03;;;8.20;86.30;;;7.50;77.77;97162.69;5055685;28;20458;-76
2023/04/25 03:01:41;;;;;;;4.10;2.77;;;8.20;87.10;;;7.71;76.38;97172.28;5051308;28;20480;-80
2023/04/25 03:04:08;;;;;;;7.63;3.33;;;8.20;86.80;;;7.67;77.22;97175.66;5053251;28;20444;-80
2023/04/25 03:06:37;;;;;;;5.37;3.37;;;8.20;86.60;;;7.59;77.35;97166.78;5045897;28;20498;-82
2023/04/25 03:09:04;;;;;;;4.43;3.00;;;8.20;86.70;;;7.67;77.27;97162.19;5053455;28;20448;-79
2023/04/25 03:11:32;;;;;;;4.23;3.77;;;8.20;87.00;;;7.68;77.60;97158.47;5049188;28;20452;-79
2023/04/25 03:13:59;;;;;;;7.43;4.10;;;8.30;87.20;;;7.74;77.82;97160.28;5042706;28;20450;-81
2023/04/25 03:16:28;;;;;;;4.13;3.70;;;8.30;87.50;;;7.77;77.42;97157.97;5058076;28;20454;-78
2023/04/25 03:18:55;;;;;;;8.27;4.07;;;8.30;87.50;;;7.64;77.87;97158.06;5052572;28;20454;-77
2023/04/25 03:21:22;;;;;;;6.00;4.10;;;8.20;87.70;;;7.56;77.63;97161.84;5050110;28;20486;-80
2023/04/25 03:23:50;;;;;;;4.00;3.60;;;8.20;87.50;;;7.36;78.20;97149.38;5056437;28;20447;-80
2023/04/25 03:26:18;;;;;;;5.60;3.53;;;8.10;88.10;;;7.41;78.38;97146.00;5054161;28;20453;-80
2023/04/25 03:28:45;;;;;;;6.20;4.57;;;8.10;88.70;;;7.58;78.82;97159.75;5067277;28;20516;-82
2023/04/25 03:31:12;;;;;;;5.27;4.00;;;8.10;89.20;;;7.57;77.94;97163.50;5047015;28;20470;-81
2023/04/25 03:33:39;;;;;;;6.40;4.20;;;8.10;88.30;;;7.43;78.26;97156.56;5051168;28;20456;-79
2023/04/25 03:36:09;;;;;;;6.10;4.37;;;8.00;88.30;;;7.51;77.98;97159.00;5049406;28;20451;-81
2023/04/25 03:38:36;;;;;;;5.23;4.00;;;8.10;87.90;;;7.46;77.88;97145.38;5068910;28;20463;-77
2023/04/25 03:41:05;;;;;;;6.43;4.20;;;8.10;87.70;;;7.46;78.06;97156.94;5073649;28;20434;-83
2023/04/25 03:43:32;;;;;;;5.23;3.27;;;8.00;88.00;;;7.28;78.79;97152.28;5069048;28;20480;-74
2023/04/25 03:45:59;;;;;;;4.83;3.83;;;7.90;88.70;;;7.28;78.70;97149.59;5070603;28;20501;-77
2023/04/25 03:48:27;;;;;;;5.30;4.00;;;7.90;89.20;;;7.29;78.78;97153.94;5064427;28;20600;-75
2023/04/25 03:50:55;;;;;;;5.80;4.00;;;7.80;89.40;;;6.80;79.55;97092.63;5083032;28;20756;-75
2023/04/25 03:53:22;;;;;;;4.50;3.70;;;7.80;89.40;;;7.25;79.12;97160.78;5059009;28;20532;-77
2023/04/25 03:55:49;;;;;;;4.60;3.97;;;7.80;89.80;;;7.29;79.06;97159.31;5047405;28;20493;-79
2023/04/25 03:58:18;;;;;;;6.57;4.13;;;7.80;90.00;;;7.35;79.40;97161.16;5049129;28;20485;-79
2023/04/25 04:00:45;;;;;;;4.57;3.10;;;7.80;90.20;;;7.40;79.09;97157.00;5040636;28;20488;-80
2023/04/25 04:03:12;;;;;;;4.63;3.80;;;7.90;90.30;;;7.41;78.76;97142.50;5046349;28;20893;-80
2023/04/25 04:05:40;;;;;;;4.40;3.80;;;8.00;90.00;;;7.51;77.94;97153.63;5048138;28;20458;-79
2023/04/25 04:08:07;;;;;;;5.97;4.40;;;8.00;88.90;;;7.48;78.17;97152.19;5041046;28;20527;-80
2023/04/25 04:10:35;;;;;;;6.13;4.03;;;8.00;88.60;;;7.65;77.62;97159.72;5037633;28;20467;-77
2023/04/25 04:13:02;;;;;;;5.13;3.67;;;8.10;88.30;;;7.70;77.29;97161.75;5060302;28;21107;-76
2023/04/25 04:15:32;;;;;;;5.43;4.30;;;8.20;87.80;;;7.74;77.08;97163.81;5047664;28;20963;-79
2023/04/25 04:18:02;;;;;;;4.77;3.43;;;8.30;87.30;;;7.80;77.01;97168.28;5031834;28;20476;-78
2023/04/25 04:20:30;;;;;;;6.40;4.27;;;8.30;87.50;;;7.75;77.01;97159.22;5046235;28;20452;-77
2023/04/25 04:22:57;;;;;;;4.70;4.00;;;8.20;87.50;;;7.82;76.70;97165.41;5036850;28;20880;-77
2023/04/25 04:25:26;;;;;;;6.57;4.67;;;8.30;86.60;;;7.84;76.23;97170.53;5038231;28;20511;-78
2023/04/25 04:27:54;;;;;;;4.47;4.00;;;8.30;86.00;;;7.89;76.23;97166.16;5043489;28;20624;-77
2023/04/25 04:30:24;;;;;;;5.23;3.70;;;8.30;86.10;;;7.79;76.75;97165.81;5041066;28;20953;-79
2023/04/25 04:32:54;;;;;;;4.17;3.43;;;8.30;86.30;;;7.82;76.38;97170.78;5059858;28;20462;-79
2023/04/25 04:35:21;;;;;;;4.87;3.70;;;8.30;86.40;;;7.84;76.65;97166.00;5060102;28;20935;-76
2023/04/25 04:37:48;;;;;;;6.27;4.03;;;8.30;86.70;;;7.81;77.83;97169.13;5049068;28;20456;-78
2023/04/25 04:40:17;;;;;;;6.33;4.07;;;8.30;87.60;;;7.84;77.89;97174.06;5046495;28;20546;-79
2023/04/25 04:42:45;;;;;;;5.53;4.10;;;8.30;88.30;;;7.88;77.76;97167.19;5050891;28;20452;-80
2023/04/25 04:45:13;;;;;;;6.90;4.37;;;8.40;88.90;;;7.93;77.38;97177.31;5051919;28;20474;-82
2023/04/25 04:47:40;;;;;;;5.70;4.70;;;8.40;87.90;;;7.80;77.52;97180.91;5052039;28;20528;-80
2023/04/25 04:50:10;;;;;;;4.77;4.13;;;8.30;87.70;;;7.73;78.35;97185.50;5040371;28;20522;-78
2023/04/25 04:52:39;;;;;;;6.80;4.30;;;8.30;88.20;;;7.72;78.80;97184.69;5043088;28;20452;-74
2023/04/25 04:55:07;;;;;;;5.63;4.23;;;8.20;89.50;;;7.68;78.81;97172.72;5054606;28;20472;-78
2023/04/25 04:57:35;;;;;;;5.30;3.80;;;8.30;89.90;;;7.62;78.93;97160.16;5053009;28;20910;-79
2023/04/25 05:00:10;;;;;;;4.43;3.80;;;8.30;90.30;;;7.82;78.49;97180.69;5052067;28;20494;-81
2023/04/25 05:02:38;;;;;;;5.37;4.53;;;8.30;89.90;;;7.84;78.45;97183.97;5046768;28;20467;-77
2023/04/25 05:05:08;;;;;;;8.67;5.07;;;8.30;89.60;;;7.91;77.59;97182.09;5047363;28;20464;-77
2023/04/25 05:07:35;;;;;;;6.20;4.27;;;8.30;88.40;;;7.88;78.56;97187.88;5055047;28;20810;-76
2023/04/25 05:10:03;;;;;;;4.83;3.70;;;8.40;89.40;;;7.91;77.71;97195.53;5043148;28;21021;-72
2023/04/25 05:12:31;;;;;;;5.43;4.47;;;8.40;88.10;;;7.87;77.09;97189.75;5042910;28;20460;-77
2023/04/25 05:15:01;;;;;;;5.13;4.03;;;8.40;87.40;;;7.97;76.86;97191.97;5043435;28;20548;-77
2023/04/25 05:17:28;;;;;;;4.90;4.20;;;8.50;87.30;;;7.82;77.27;97186.91;5047149;28;20553;-76
2023/04/25 05:19:55;;;;;;;5.90;4.50;;;8.40;87.30;;;7.81;77.85;97185.25;5050968;28;20476;-77
2023/04/25 05:22:24;;;;;;;4.73;3.97;;;8.40;87.90;;;7.78;77.32;97186.50;5051371;28;20935;-76
2023/04/25 05:24:51;;;;;;;4.30;3.13;;;8.40;87.10;;;7.36;77.06;97122.50;5047034;28;20461;-75
2023/04/25 05:27:19;;;;;;;4.50;3.53;;;8.40;86.60;;;7.90;77.30;97183.13;5062823;28;20971;-78
2023/04/25 05:29:48;;;;;;;5.60;4.50;;;8.40;87.50;;;8.10;76.82;97188.31;5038046;28;20461;-79
2023/04/25 05:32:15;;;;;;;4.73;3.27;;;8.50;87.40;;;8.04;75.96;97186.53;5042741;28;20511;-78
2023/04/25 05:34:42;;;;;;;5.07;3.60;;;8.50;86.30;;;8.02;75.46;97185.94;5040639;28;20446;-78
2023/04/25 05:37:10;;;;;;;5.10;3.90;;;8.60;85.20;;;7.91;75.51;97199.03;5058478;28;20506;-74
2023/04/25 05:39:38;;;;;;;4.40;3.37;;;8.50;84.60;;;8.00;75.56;97188.81;5038332;28;20460;-80
2023/04/25 05:42:05;;;;;;;4.80;3.97;;;8.60;85.40;;;8.29;74.68;97191.09;5060871;28;20456;-77
2023/04/25 05:44:33;;;;;;;4.30;3.40;;;8.70;85.30;;;8.45;74.59;97187.81;5050791;28;20515;-71
2023/04/25 05:47:00;;;;;;;4.43;3.57;;;8.90;84.60;;;8.35;73.41;97211.72;5045804;28;20532;-77
2023/04/25 05:49:27;;;;;;;5.00;3.57;;;8.90;83.50;;;8.14;73.52;97189.56;5045731;28;20974;-73
2023/04/25 05:51:54;;;;;;;4.17;3.50;;;8.90;83.30;;;8.39;73.77;97218.31;5037688;28;20939;-78
2023/04/25 05:54:22;;;;;;;6.23;3.90;;;8.90;83.50;;;8.21;73.60;97214.53;5062662;28;21279;-76
2023/04/25 05:56:50;;;;;;;5.37;4.03;;;8.80;83.50;;;8.26;73.65;97207.66;5057629;28;20461;-77
2023/04/25 05:59:17;;;;;;;3.87;3.00;;;8.80;84.00;;;8.00;74.58;97212.22;5036524;28;20461;-76
2023/04/25 06:01:45;;;;;;;5.70;4.00;;;8.60;83.70;;;8.06;74.64;97203.28;5038810;28;20469;-75
2023/04/25 06:04:12;;;;;;;4.70;3.57;;;8.70;84.60;;;7.88;75.60;97212.09;5047810;28;20452;-78
2023/04/25 06:06:39;;;;;;;3.70;3.23;;;8.50;84.20;;;7.74;75.88;97216.75;5041167;28;20457;-77
2023/04/25 06:09:07;;;;;;;4.83;3.30;;;8.40;84.80;;;7.69;76.29;97208.50;5043093;28;20596;-77
2023/04/25 06:11:34;;;;;;;4.70;3.40;;;8.30;86.10;;;7.57;77.69;97213.72;5031620;28;20456;-77
2023/04/25 06:14:02;;;;;;;4.43;3.60;;;8.20;87.20;;;7.75;77.86;97213.00;5068605;28;20457;-78
2023/04/25 06:16:30;;;;;;;7.07;4.60;;;8.30;88.00;;;7.79;78.24;97216.91;5042069;28;20460;-80
2023/04/25 06:18:57;;;;;;;6.00;4.40;;;8.30;88.30;;;7.89;78.04;97219.13;5078572;28;20525;-78
2023/04/25 06:21:24;;;;;;;3.87;3.17;;;8.40;88.80;;;7.70;77.47;97226.28;5047932;28;20498;-76
2023/04/25 06:23:51;;;;;;;4.37;3.57;;;8.30;87.50;;;7.80;79.10;97222.06;5036449;28;20457;-78
2023/04/25 06:26:19;;;;;;;4.73;4.10;;;8.30;89.60;;;7.71;79.10;97226.06;5041585;28;20457;-79
2023/04/25 06:28:46;;;;;;;5.53;3.87;;;8.30;90.00;;;7.32;79.46;97183.06;5049984;28;20489;-76
2023/04/25 06:31:15;;;;;;;4.60;3.03;;;8.20;90.00;;;7.51;80.63;97234.25;5053406;28;20448;-77
2023/04/25 06:33:42;;;;;;;5.03;3.43;;;8.20;90.70;;;7.44;81.77;97225.38;5058733;28;20479;-75
2023/04/25 06:36:09;;;;;;;6.30;3.90;;;8.10;91.80;;;7.43;82.56;97205.78;5071748;28;20464;-73
2023/04/25 06:38:37;;;;;;;5.17;3.47;;;8.20;93.10;;;7.52;82.33;97230.53;5038968;28;20527;-78
2023/04/25 06:41:05;;;;;;;6.23;4.50;;;8.10;92.30;;;7.52;81.50;97227.84;5039585;28;20456;-79
2023/04/25 06:43:33;;;;;;;5.20;3.53;;;8.10;91.70;;;7.65;82.40;97226.94;5047796;28;20468;-76
2023/04/25 06:46:00;;;;;;;7.80;4.77;;;8.20;92.60;;;7.63;79.82;97226.31;5042007;28;20448;-78
2023/04/25 06:48:29;;;;;;;6.87;4.50;;;8.20;90.40;;;7.83;79.44;97217.31;5041100;28;20487;-75
2023/04/25 06:50:57;;;;;;;7.20;4.60;;;8.40;90.70;;;7.71;79.58;97201.03;5045665;28;20470;-75
2023/04/25 06:53:24;;;;;;;4.13;3.37;;;8.50;90.60;;;8.06;79.52;97224.78;5043112;28;20456;-77
2023/04/25 06:55:51;;;;;;;5.50;4.33;;;8.60;90.10;;;7.93;78.87;97226.53;5045053;28;20460;-74
2023/04/25 06:58:19;;;;;;;8.30;4.43;;;8.50;88.80;;;8.23;77.50;97219.69;5039262;28;20532;-78
2023/04/25 07:00:46;;;;;;;5.03;3.80;;;8.70;88.70;;;8.22;76.73;97170.41;5035639;28;20491;-80
2023/04/25 07:03:13;;;;;;;4.47;3.97;;;8.90;88.20;;;8.87;74.68;97226.78;5044736;28;20465;-77
2023/04/25 07:05:42;;;;;;;9.60;4.57;;;9.20;85.70;;;8.89;73.48;97232.78;5035528;28;20477;-79
2023/04/25 07:08:09;;;;;;;4.37;3.13;;;9.40;83.80;;;8.80;73.88;97234.94;5038239;28;20567;-78
2023/04/25 07:10:36;;;;;;;6.30;3.80;;;9.30;83.80;;;9.04;71.48;97235.94;5057593;28;20957;-75
2023/04/25 07:13:03;;;;;;;3.77;3.40;;;9.60;82.10;;;8.83;71.32;97239.88;5045635;28;20490;-79
2023/04/25 07:15:30;;;;;;;4.37;3.83;;;9.50;81.70;;;8.79;73.54;97235.97;5042649;28;20806;-78
2023/04/25 07:17:58;;;;;;;3.80;3.40;;;9.40;82.70;;;8.44;73.76;97234.63;5040145;28;20456;-80
2023/04/25 07:20:27;;;;;;;5.37;4.47;;;9.10;82.80;;;8.22;73.98;97228.81;5048632;28;21259;-81
2023/04/25 07:22:56;;;;;;;4.33;3.80;;;8.90;83.10;;;7.98;75.50;97190.91;5066949;28;20543;-74
2023/04/25 07:25:23;;;;;;;3.13;2.60;;;8.90;84.30;;;7.78;72.79;97251.06;5040021;28;20559;-77
2023/04/25 07:27:50;;;;;;;4.50;3.90;;;8.60;81.60;;;7.77;73.60;97254.78;5069444;28;20456;-77
2023/04/25 07:30:18;;;;;;;4.77;2.53;;;8.40;82.30;;;7.57;72.32;97268.34;5044042;28;20467;-78
2023/04/25 07:32:45;;;;;;;4.10;2.57;;;8.30;81.50;;;7.15;73.34;97271.41;5042864;28;20457;-79
2023/04/25 07:35:12;;;;;;;3.63;2.60;;;8.00;81.10;;;6.76;76.72;97270.47;5071019;28;20460;-76
2023/04/25 07:37:39;;;;;;;4.10;2.73;;;7.50;83.50;;;6.66;79.20;97270.88;5069723;28;20468;-79
2023/04/25 07:40:10;;;;;;;3.93;2.90;;;7.40;88.20;;;6.71;80.77;97273.75;5049419;28;20639;-77
2023/04/25 07:42:37;;;;;;;3.87;2.53;;;7.30;90.40;;;6.82;80.87;97274.16;5060728;28;20446;-80
2023/04/25 07:45:04;;;;;;;4.33;3.07;;;7.30;91.30;;;6.62;79.80;97275.84;5048700;28;20452;-77
2023/04/25 07:47:32;;;;;;;4.50;3.23;;;7.30;89.60;;;6.43;79.22;97274.00;5037910;28;20451;-78
2023/04/25 07:50:00;;;;;;;3.47;2.40;;;7.10;88.60;;;6.34;79.03;97279.56;5039169;28;20478;-78
2023/04/25 07:52:27;;;;;;;4.00;2.60;;;7.00;88.90;;;6.66;79.74;97270.88;5046866;28;20447;-78
2023/04/25 07:54:54;;;;;;;4.33;2.80;;;7.10;90.70;;;6.76;78.57;97289.25;5048744;28;20500;-79
2023/04/25 07:57:24;;;;;;;4.13;3.00;;;7.30;89.20;;;6.96;78.13;97286.53;5044459;28;21107;-78
2023/04/25 07:59:51;;;;;;;2.80;2.60;;;7.40;88.60;;;6.76;77.78;97206.03;5049355;28;20467;-76
2023/04/25 08:02:18;;;;;;;3.90;2.70;;;7.70;89.00;;;7.37;76.23;97296.13;5049200;28;20529;-77
2023/04/25 08:04:46;;;;;;;3.93;2.67;;;7.90;86.10;;;7.15;77.01;97298.28;5048221;28;20455;-78
2023/04/25 08:07:13;;;;;;;3.03;2.20;;;7.80;85.80;;;6.97;76.48;97309.66;5043232;28;20463;-77
2023/04/25 08:09:40;;;;;;;4.00;2.70;;;7.70;85.60;;;6.82;76.42;97301.81;5048302;28;20470;-81
2023/04/25 08:12:07;;;;;;;4.13;2.60;;;7.40;84.00;;;7.07;76.77;97293.13;5051641;28;20991;-78
2023/04/25 08:14:37;;;;;;;2.33;2.10;;;7.60;86.50;;;7.11;73.10;97288.16;5039743;28;20470;-77
2023/04/25 08:17:05;;;;;;;5.23;2.70;;;7.60;83.20;;;7.48;74.95;97299.19;5046847;28;20457;-78
2023/04/25 08:19:32;;;;;;;4.23;3.00;;;7.90;84.90;;;7.26;73.44;97243.03;5054530;28;20479;-78
2023/04/25 08:21:59;;;;;;;4.23;2.20;;;8.10;83.00;;;7.90;71.60;97310.34;5042252;28;20447;-76
2023/04/25 08:24:26;;;;;;;3.03;2.73;;;8.40;82.10;;;7.98;71.78;97305.78;5077622;28;20846;-78
2023/04/25 08:26:54;;;;;;;4.20;2.53;;;8.50;81.50;;;8.35;70.24;97311.31;5072065;28;20456;-73
2023/04/25 08:29:23;;;;;;;2.67;2.17;;;8.70;81.10;;;8.66;69.79;97308.84;5052617;28;20475;-78
2023/04/25 08:31:52;;;;;;;3.63;2.47;;;9.10;80.50;;;8.94;69.03;97308.38;5052612;28;20447;-75
2023/04/25 08:34:20;;;;;;;3.90;2.73;;;9.30;80.30;;;9.57;65.03;97303.72;5054941;28;20452;-75
2023/04/25 08:36:47;;;;;;;2.07;1.87;;;9.80;78.40;;;9.85;63.56;97310.44;5051169;28;21130;-78
2023/04/25 08:39:14;;;;;;;3.00;2.23;;;10.20;75.50;;;10.14;61.43;97312.53;5042336;28;20460;-77
2023/04/25 08:41:42;;;;;;;5.13;3.17;;;10.60;73.20;;;10.24;60.62;97282.28;5061283;28;20453;-76
2023/04/25 08:44:12;;;;;;;2.57;2.07;;;10.80;72.80;;;10.55;60.29;97307.38;5050175;28;20446;-77
2023/04/25 08:46:40;;;;;;;2.60;2.40;;;11.00;71.70;;;10.54;58.86;97311.13;5048416;28;20535;-76
2023/04/25 08:49:10;;;;;;;3.57;2.90;;;11.10;70.10;;;11.05;59.89;97317.75;5052364;28;20479;-77
2023/04/25 08:51:46;;;;;;;4.33;2.50;;;11.40;71.20;;;11.06;59.59;97310.44;5058854;28;20466;-79
2023/04/25 08:54:15;;;;;;;2.93;2.50;;;11.50;70.70;;;11.28;58.17;97317.97;5045321;28;20464;-79
2023/04/25 08:56:46;;;;;;;3.17;2.87;;;11.70;70.20;;;11.81;58.03;97318.78;5049966;28;20560;-76
2023/04/25 08:59:15;;;;;;;2.90;2.50;;;12.00;70.90;;;11.14;57.91;97318.22;5055045;28;20527;-74
2023/04/25 09:01:42;;;;;;;3.00;2.63;;;11.80;68.30;;;11.29;58.24;97328.53;5063272;28;20480;-76
2023/04/25 09:04:12;;;;;;;3.40;2.57;;;11.70;69.60;;;11.07;59.85;97324.78;5057760;28;20460;-76
2023/04/25 09:06:39;;;;;;;3.63;2.90;;;11.70;70.50;;;10.73;60.63;97292.94;5070741;28;20442;-75
2023/04/25 09:09:08;;;;;;;2.97;2.40;;;11.50;70.90;;;10.38;61.23;97328.81;5056372;28;20876;-73
2023/04/25 09:11:37;;;;;;;3.23;2.93;;;11.10;70.90;;;9.96;63.01;97330.41;5052055;28;20465;-73
2023/04/25 09:14:16;;;;;;;3.53;2.60;;;10.60;72.10;;;9.54;65.99;97341.94;5061457;28;20440;-75
2023/04/25 09:17:04;;;;;;;3.57;3.27;;;10.30;73.90;;;9.43;65.46;97323.81;5055816;28;20498;-76
2023/04/25 09:19:35;;;;;;;4.23;3.40;;;10.20;74.50;;;9.68;65.61;97341.78;5074079;28;20494;-72
2023/04/25 09:22:04;;;;;;;4.10;2.80;;;10.20;74.40;;;9.86;65.13;97339.06;5055761;28;20487;-78
2023/04/25 09:24:37;;;;;;;5.17;3.90;;;10.30;75.20;;;9.71;66.46;97335.94;5063091;28;20451;-79
2023/04/25 09:27:05;;;;;;;3.63;3.27;;;10.30;75.70;;;9.17;66.66;97347.31;5059769;28;20461;-76
2023/04/25 09:29:34;;;;;;;4.00;3.00;;;9.90;76.10;;;8.91;65.71;97341.13;5062370;28;20469;-77
2023/04/25 09:32:20;;;;;;;3.03;2.73;;;9.60;75.40;;;8.92;65.93;97338.22;5047351;28;20515;-73
2023/04/25 09:34:51;;;;;;;5.03;4.10;;;9.50;75.30;;;9.15;67.59;97344.00;5046848;28;20529;-75
2023/04/25 09:37:21;;;;;;;5.27;3.50;;;9.60;77.20;;;9.49;66.88;97329.13;5043305;28;20203;-79
2023/04/25 09:39:49;;;;;;;4.57;4.10;;;9.90;77.80;;;9.86;65.70;97344.47;5058488;28;20497;-78
2023/04/25 09:42:18;;;;;;;2.70;2.43;;;10.20;76.50;;;9.91;63.49;97349.97;5039785;28;20836;-75
2023/04/25 09:44:46;;;;;;;3.83;3.43;;;10.40;74.40;;;9.90;62.26;97345.63;5044827;28;21000;-78
2023/04/25 09:47:16;;;;;;;4.17;3.17;;;10.40;72.80;;;10.11;62.17;97335.41;5037085;28;21027;-78
2023/04/25 09:49:44;;;;;;;4.30;3.70;;;10.50;72.60;;;10.05;59.79;97322.81;5041074;28;20483;-77
2023/04/25 09:52:17;;;;;;;4.93;3.50;;;10.60;70.10;;;9.69;59.00;97327.25;5042514;28;20437;-77
2023/04/25 09:54:47;;;;;;;2.33;2.10;;;10.40;68.40;;;9.84;58.90;97335.78;5051675;28;20480;-81
2023/04/25 09:57:16;;;;;;;4.10;3.10;;;10.40;68.30;;;10.35;59.58;97330.06;5042980;28;20466;-77
2023/04/25 09:59:48;;;;;;;2.67;2.47;;;10.60;70.30;;;10.73;57.63;97347.81;5045201;28;20481;-78
2023/04/25 10:02:19;;;;;;;3.17;2.60;;;11.00;68.60;;;11.02;55.56;97334.44;5041993;28;20583;-78
2023/04/25 10:04:52;;;;;;;4.10;2.80;;;11.30;66.80;;;11.23;54.41;97329.50;5072038;28;20460;-78
2023/04/25 10:07:23;;;;;;;3.00;2.70;;;11.50;65.20;;;11.68;54.68;97324.47;5038206;28;20475;-75
2023/04/25 10:09:50;;;;;;;3.30;2.73;;;11.90;65.50;;;11.15;56.14;97332.56;5031227;28;20481;-79
2023/04/25 10:12:18;;;;;;;4.40;2.77;;;11.70;65.10;;;11.38;55.86;97325.47;5040158;28;20457;-78
2023/04/25 10:14:46;;;;;;;2.70;2.50;;;11.80;65.20;;;11.28;56.50;97337.69;5036864;28;20459;-80
2023/04/25 10:17:15;;;;;;;3.40;3.10;;;11.80;65.50;;;11.36;57.33;97333.00;5043788;28;20489;-72
2023/04/25 10:19:42;;;;;;;3.67;2.80;;;11.80;66.80;;;11.42;56.14;97323.94;5047017;28;20471;-71
2023/04/25 10:22:16;;;;;;;3.00;2.37;;;11.90;65.60;;;11.25;52.73;97337.38;5054295;28;20841;-76
2023/04/25 10:24:46;;;;;;;1.90;1.40;;;11.80;61.60;;;11.08;51.82;97334.56;5062835;28;20551;-75
2023/04/25 10:27:13;;;;;;;2.27;1.73;;;11.70;59.80;;;10.80;51.14;97336.06;5042639;28;20488;-74
2023/04/25 10:29:43;;;;;;;2.50;1.83;;;11.40;58.50;;;10.73;51.17;97339.72;5065041;28;20485;-74
2023/04/25 10:32:10;;;;;;;4.47;1.52;;;11.30;58.50;;;10.71;50.65;97339.13;5037186;28;20451;-72
2023/04/25 10:34:43;;;;;;;1.93;1.43;;;11.30;57.80;;;10.65;49.60;97334.63;5054308;28;20198;-71